Hauptseite
METAR-TAF:

METAR-TAF

Flughäfen :

Flughafen Agen

Agen, Frankreich

Breite: 44-11N, Länge: 000-36E, Höhe: 61 m

Beobachtung

Neuester Wetterbericht von vor 22 Minuten, um 07:30 UTC
Wind 3 kt aus Ost/Südost, variierte zwischen Ost/Nordost und Süd
Temperatur 14°C
Luftfeuchtigkeit 100%
Luftdruck 1024 hPa
Sichtweite: 0300 m
Nebel

METAR: LFBA 220730Z AUTO 12003KT 070V170 0350 0300 R29/0400N FG VV/// 14/14 Q1024 BECMG CAVOK

Zeit: 09:52 (07:52 UTC)

Prognose

Neuester Wetterbericht von vor 2 Stunden und 52 Minuten, um 05:00 UTC
Gültige Prognose vom 22 um 06 UTC bis 22 um 15 UTC
Wind 2 kt aus unterschiedlichen Richtungen
Sichtweite 10 km oder mehr
keine Wolken unter 1500 m und keine Kumulonimbus oder Gewitterwolken
Zeitweise
vom 22 um 06 UTC bis 22 um 09 UTC
Durchbrochene Bewölkung in der Höhe von 500 ft

TAF: LFBA 220500Z 2206/2215 VRB02KT CAVOK TEMPO 2206/2209 BKN005

Wetterbeobachtungen und Prognosen von mehr als 4000 Flughäfen (METAR und TAF Bericht).

Die verfügbaren Stationen werden durch gelbe und rote Markierungen auf der Karte dargestellt.

Führen Sie die Maus auf sie, um den Namen der Station zu sehen.

Darauf klicken, um die Beobachtung von Wetterbeobachtungen und Prognosen zu sehen.

Um die Karte zu ändern : klicken Sie auf den grünen Tasten mit einem schwarzen Kreuz Zum Vergrößern, auf den grünen Button mit einem Gedankenstrich zu verkleinern, oder auf die grünen Pfeile für benachbarte Karten.


METAR-TAF: